Time,TemperatureF,DewpointF,PressureIn,WindDirection,WindDirectionDegrees,WindSpeedMPH,WindSpeedGustMPH,Humidity,HourlyPrecipIn,Conditions,Clouds,dailyrainin,SolarRadiationWatts/m^2,SoftwareType,DateUTC
2013-03-21 00:00:00,37.9,32.2,29.96,SSE,150,0.0,6.0,80,0.00,-RA,OVC,0.00,0.0,WeatherDisplay:10.37,2013-03-21 00:00:00,
2013-03-21 00:30:00,37.6,31.3,29.96,East,100,0.0,7.0,78,0.00,-RA,OVC,0.00,0.0,WeatherDisplay:10.37,2013-03-21 00:30:00,
2013-03-21 01:00:00,37.5,31.5,29.97,ESE,107,0.0,7.0,79,0.00,-RA,OVC,0.00,0.0,WeatherDisplay:10.37,2013-03-21 01:00:00,
2013-03-21 01:30:00,37.2,31.2,29.97,SE,132,2.0,6.0,79,0.00,-RA,OVC,0.00,0.0,WeatherDisplay:10.37,2013-03-21 01:30:00,
2013-03-21 02:00:00,37.2,31.9,29.97,South,179,2.0,5.0,81,0.00,-RA,OVC,0.00,0.0,WeatherDisplay:10.37,2013-03-21 02:00:00,
2013-03-21 02:30:00,36.7,31.7,29.97,SE,139,2.0,7.0,82,0.00,-RA,OVC,0.00,0.0,WeatherDisplay:10.37,2013-03-21 02:30:00,
2013-03-21 03:00:00,36.4,31.7,29.97,SSE,148,1.0,9.0,83,0.00,-RA,OVC,0.00,0.0,WeatherDisplay:10.37,2013-03-21 03:00:00,
2013-03-21 03:30:00,35.5,31.1,29.96,SSE,149,0.0,3.0,84,0.00,-RA,OVC,0.00,0.0,WeatherDisplay:10.37,2013-03-21 03:30:00,
2013-03-21 04:00:00,35.7,31.6,29.96,SSE,155,1.0,5.0,85,0.00,-RA,OVC,0.00,0.0,WeatherDisplay:10.37,2013-03-21 04:00:00,
2013-03-21 04:30:00,36.0,31.9,29.97,SSE,148,0.0,7.0,85,0.00,-RA,OVC,0.00,0.0,WeatherDisplay:10.37,2013-03-21 04:30:00,
2013-03-21 05:00:00,36.2,32.1,29.97,SE,131,1.0,9.0,85,0.00,-RA,OVC,0.00,0.0,WeatherDisplay:10.37,2013-03-21 05:00:00,
2013-03-21 05:30:00,36.1,31.7,29.98,SE,144,3.0,9.0,84,0.00,-RA,OVC,0.00,0.0,WeatherDisplay:10.37,2013-03-21 05:30:00,
2013-03-21 06:00:00,36.3,31.9,29.98,SE,131,3.0,10.0,84,0.00,-RA,OVC,0.00,0.0,WeatherDisplay:10.37,2013-03-21 06:00:00,
2013-03-21 06:30:00,36.6,31.9,29.98,SE,127,0.0,9.0,83,0.00,-RA,OVC,0.00,16.0,WeatherDisplay:10.37,2013-03-21 06:30:00,
2013-03-21 07:00:00,37.0,31.7,29.98,SE,139,5.0,12.0,81,0.00,-RA,OVC,0.00,46.0,WeatherDisplay:10.37,2013-03-21 07:00:00,
2013-03-21 07:30:00,37.4,31.4,29.99,SE,140,6.0,10.0,79,0.00,-RA,OVC,0.00,69.0,WeatherDisplay:10.37,2013-03-21 07:30:00,
2013-03-21 08:00:00,37.7,31.5,29.99,SSE,148,5.0,10.0,78,0.00,-RA,OVC,0.00,118.0,WeatherDisplay:10.37,2013-03-21 08:00:00,
2013-03-21 08:30:00,38.7,32.1,29.98,SE,132,3.0,12.0,77,0.00,-RA,OVC,0.00,243.0,WeatherDisplay:10.37,2013-03-21 08:30:00,
2013-03-21 09:00:00,39.9,32.9,29.99,ESE,112,2.0,10.0,76,0.00,-RA,OVC,0.00,330.0,WeatherDisplay:10.37,2013-03-21 09:00:00,
2013-03-21 09:30:00,40.2,33.5,29.98,SE,129,2.0,10.0,77,0.00,-RA,OVC,0.00,253.0,WeatherDisplay:10.37,2013-03-21 09:30:00,
2013-03-21 10:00:00,41.6,33.6,29.98,SSE,149,3.0,12.0,73,0.00,-RA,OVC,0.00,413.0,WeatherDisplay:10.37,2013-03-21 10:00:00,
2013-03-21 10:30:00,41.7,33.6,29.97,SE,133,2.0,16.0,73,0.00,-RA,OVC,0.00,374.0,WeatherDisplay:10.37,2013-03-21 10:30:00,
2013-03-21 11:00:00,41.8,33.8,29.97,SE,131,6.0,15.0,73,0.00,-RA,OVC,0.00,360.0,WeatherDisplay:10.37,2013-03-21 11:00:00,
2013-03-21 11:30:00,42.4,34.0,29.97,SE,132,6.0,17.0,72,0.00,-RA,OVC,0.00,265.0,WeatherDisplay:10.37,2013-03-21 11:30:00,
2013-03-21 12:00:00,43.1,34.3,29.96,SE,138,3.0,13.0,71,0.00,-RA,OVC,0.00,192.0,WeatherDisplay:10.37,2013-03-21 12:00:00,
2013-03-21 12:30:00,43.2,34.5,29.96,ESE,118,3.0,15.0,71,0.00,-RA,OVC,0.00,230.0,WeatherDisplay:10.37,2013-03-21 12:30:00,
2013-03-21 13:00:00,43.5,34.3,29.95,SE,131,6.0,13.0,70,0.00,-RA,OVC,0.00,181.0,WeatherDisplay:10.37,2013-03-21 13:00:00,
2013-03-21 13:30:00,43.6,34.4,29.95,SE,128,3.0,14.0,70,0.00,-RA,OVC,0.00,251.0,WeatherDisplay:10.37,2013-03-21 13:30:00,
2013-03-21 14:00:00,43.9,34.3,29.94,ESE,103,3.0,15.0,69,0.00,-RA,OVC,0.00,223.0,WeatherDisplay:10.37,2013-03-21 14:00:00,
2013-03-21 14:30:00,43.6,34.4,29.93,SE,128,1.0,13.0,70,0.00,-RA,OVC,0.00,237.0,WeatherDisplay:10.37,2013-03-21 14:30:00,
2013-03-21 15:00:00,43.7,33.8,29.93,SE,138,5.0,14.0,68,0.00,-RA,OVC,0.00,192.0,WeatherDisplay:10.37,2013-03-21 15:00:00,
2013-03-21 15:30:00,43.1,33.6,29.92,SE,131,6.0,14.0,69,0.00,-RA,OVC,0.00,137.0,WeatherDisplay:10.37,2013-03-21 15:30:00,
2013-03-21 16:00:00,42.4,33.3,29.92,ESE,110,6.0,18.0,70,0.00,-RA,OVC,0.00,121.0,WeatherDisplay:10.37,2013-03-21 16:00:00,
2013-03-21 16:30:00,41.8,32.3,29.92,SE,127,7.0,15.0,69,0.00,-RA,OVC,0.00,116.0,WeatherDisplay:10.37,2013-03-21 16:30:00,
2013-03-21 17:00:00,41.5,32.4,29.92,ESE,117,2.0,15.0,70,0.00,-RA,OVC,0.00,69.0,WeatherDisplay:10.37,2013-03-21 17:00:00,
2013-03-21 17:30:00,41.2,32.1,29.92,SE,130,8.0,18.0,70,0.00,-RA,OVC,0.00,32.0,WeatherDisplay:10.37,2013-03-21 17:30:00,
2013-03-21 18:00:00,40.7,32.0,29.92,SE,129,5.0,17.0,71,0.00,-RA,OVC,0.00,7.0,WeatherDisplay:10.37,2013-03-21 18:00:00,
2013-03-21 18:30:00,40.2,31.9,29.92,SE,134,7.0,16.0,72,0.00,-RA,OVC,0.00,0.0,WeatherDisplay:10.37,2013-03-21 18:30:00,
2013-03-21 19:00:00,39.9,31.2,29.92,SE,135,8.0,21.0,71,0.00,-RA,OVC,0.00,0.0,WeatherDisplay:10.37,2013-03-21 19:00:00,
2013-03-21 19:30:00,39.7,31.4,29.92,SE,127,5.0,21.0,72,0.00,-RA,OVC,0.00,0.0,WeatherDisplay:10.37,2013-03-21 19:30:00,
2013-03-21 20:00:00,39.7,31.4,29.92,SE,136,7.0,17.0,72,0.00,-RA,OVC,0.00,0.0,WeatherDisplay:10.37,2013-03-21 20:00:00,
2013-03-21 20:30:00,39.6,32.0,29.92,ESE,121,6.0,20.0,74,0.00,-RA,OVC,0.00,0.0,WeatherDisplay:10.37,2013-03-21 20:30:00,
2013-03-21 21:00:00,39.6,33.3,29.91,ESE,123,5.0,20.0,78,0.00,-RA,OVC,0.00,0.0,WeatherDisplay:10.37,2013-03-21 21:00:00,
2013-03-21 21:30:00,39.6,33.9,29.91,SE,140,3.0,17.0,80,0.00,-RA,OVC,0.00,0.0,WeatherDisplay:10.37,2013-03-21 21:30:00,
2013-03-21 22:00:00,39.5,34.1,29.90,SE,140,6.0,20.0,81,0.00,-RA,OVC,0.00,0.0,WeatherDisplay:10.37,2013-03-21 22:00:00,
2013-03-21 22:30:00,39.5,34.1,29.90,SE,124,3.0,15.0,81,0.00,-RA,OVC,0.00,0.0,WeatherDisplay:10.37,2013-03-21 22:30:00,
2013-03-21 23:00:00,39.3,33.9,29.89,ESE,123,3.0,20.0,81,0.00,-RA,OVC,0.00,0.0,WeatherDisplay:10.37,2013-03-21 23:00:00,
2013-03-21 23:30:00,39.0,34.0,29.89,SE,128,7.0,15.0,82,0.00,-RA,OVC,0.00,0.0,WeatherDisplay:10.37,2013-03-21 23:30:00,